createdAt,value
2017-06-23T00:02:21.379Z,11.20
2017-06-23T00:04:49.030Z,12.95
2017-06-23T00:07:16.666Z,12.40
2017-06-23T00:09:44.341Z,10.65
2017-06-23T00:12:11.975Z,13.27
2017-06-23T00:14:39.656Z,12.88
2017-06-23T00:17:07.301Z,11.32
2017-06-23T00:19:36.126Z,12.10
2017-06-23T00:22:03.748Z,10.38
2017-06-23T00:24:32.280Z,11.27
2017-06-23T00:27:00.706Z,11.80
2017-06-23T00:29:28.347Z,10.00
2017-06-23T00:31:56.011Z,10.52
2017-06-23T00:34:23.645Z,12.57
2017-06-23T00:36:51.702Z,11.75
2017-06-23T00:39:19.350Z,11.57
2017-06-23T00:41:46.997Z,11.80
2017-06-23T00:44:14.664Z,11.05
2017-06-23T00:46:42.299Z,12.73
2017-06-23T00:49:09.965Z,14.52
2017-06-23T00:51:37.599Z,14.75
2017-06-23T00:54:05.632Z,14.50
2017-06-23T00:56:33.298Z,11.90
2017-06-23T00:59:00.941Z,13.23
2017-06-23T01:01:28.632Z,13.05
2017-06-23T01:03:56.300Z,12.73
2017-06-23T01:06:23.999Z,18.20
2017-06-23T01:08:51.647Z,18.27
2017-06-23T01:11:19.659Z,15.35
2017-06-23T01:13:47.308Z,17.83
2017-06-23T01:16:14.961Z,17.75
2017-06-23T01:18:42.641Z,22.70
2017-06-23T01:21:10.290Z,19.17
2017-06-23T01:23:37.966Z,14.38
2017-06-23T01:26:05.608Z,16.65
2017-06-23T01:28:33.251Z,16.27
2017-06-23T01:31:00.934Z,15.70
2017-06-23T01:33:28.583Z,15.55
2017-06-23T01:35:56.246Z,12.15
2017-06-23T01:38:23.886Z,13.80
2017-06-23T01:40:51.885Z,15.70
2017-06-23T01:43:20.313Z,16.50
2017-06-23T01:45:47.970Z,13.85
2017-06-23T01:48:15.647Z,14.48
2017-06-23T01:50:44.043Z,18.67
2017-06-23T01:53:11.764Z,17.42
2017-06-23T01:55:40.185Z,18.50
2017-06-23T01:58:08.230Z,17.10
2017-06-23T02:00:35.881Z,16.83
2017-06-23T02:03:03.532Z,15.68
2017-06-23T02:05:31.217Z,14.65
2017-06-23T02:07:59.631Z,15.93
2017-06-23T02:10:27.311Z,13.23
2017-06-23T02:12:54.953Z,19.15
2017-06-23T02:15:23.023Z,13.30
2017-06-23T02:17:51.445Z,13.32
2017-06-23T02:20:19.088Z,10.07
2017-06-23T02:22:46.763Z,15.90
2017-06-23T02:25:14.403Z,17.48
2017-06-23T02:27:42.089Z,13.73
2017-06-23T02:30:10.498Z,12.25
2017-06-23T02:32:38.418Z,11.65
2017-06-23T02:35:06.161Z,11.35
2017-06-23T02:37:34.570Z,9.75
2017-06-23T02:40:02.244Z,8.70
2017-06-23T02:42:29.875Z,8.63
2017-06-23T02:44:57.552Z,7.93
2017-06-23T02:47:25.960Z,8.57
2017-06-23T02:49:53.912Z,8.35
2017-06-23T02:52:21.535Z,8.75
2017-06-23T02:54:49.195Z,8.27
2017-06-23T02:57:16.864Z,8.82
2017-06-23T02:59:44.505Z,8.32
2017-06-23T03:02:12.168Z,9.75
2017-06-23T03:04:39.824Z,6.87
2017-06-23T03:07:07.747Z,8.50
2017-06-23T03:09:35.368Z,9.95
2017-06-23T03:12:03.014Z,11.05
2017-06-23T03:14:30.676Z,9.32
2017-06-23T03:16:58.311Z,11.48
2017-06-23T03:19:26.068Z,12.18
2017-06-23T03:21:53.707Z,13.07
2017-06-23T03:24:21.623Z,14.48
2017-06-23T03:26:49.268Z,17.37
2017-06-23T03:29:16.911Z,17.37
2017-06-23T03:31:44.588Z,15.38
2017-06-23T03:34:12.228Z,16.50
2017-06-23T03:36:40.681Z,17.17
2017-06-23T03:39:09.149Z,18.42
2017-06-23T03:41:37.163Z,18.08
2017-06-23T03:44:04.816Z,20.12
2017-06-23T03:46:32.473Z,20.73
2017-06-23T03:51:42.815Z,20.70
2017-06-23T03:54:10.494Z,23.87
2017-06-23T03:56:38.903Z,22.48
2017-06-23T03:59:06.854Z,20.23
2017-06-23T04:01:34.513Z,23.10
2017-06-23T04:04:02.172Z,21.52
2017-06-23T04:06:29.868Z,23.40
2017-06-23T04:08:57.503Z,23.27
2017-06-23T04:11:25.963Z,26.80
2017-06-23T04:13:55.124Z,27.60
2017-06-23T04:16:23.277Z,26.42
2017-06-23T04:18:50.923Z,24.63
2017-06-23T04:21:19.846Z,24.90
2017-06-23T04:23:47.511Z,25.48
2017-06-23T04:26:15.162Z,23.15
2017-06-23T04:28:42.886Z,24.00
2017-06-23T04:31:10.527Z,29.08
2017-06-23T04:33:39.302Z,25.80
2017-06-23T04:36:07.699Z,26.27
2017-06-23T04:38:35.352Z,22.87
2017-06-23T04:41:03.829Z,26.35
2017-06-23T04:43:31.481Z,24.52
2017-06-23T04:45:59.139Z,26.40
2017-06-23T04:48:26.770Z,24.50
2017-06-23T04:50:54.419Z,22.25
2017-06-23T04:53:22.112Z,23.75
2017-06-23T04:55:50.537Z,27.20
2017-06-23T04:58:18.216Z,26.98
2017-06-23T05:00:46.632Z,29.60
2017-06-23T05:03:14.657Z,28.55
2017-06-23T05:05:42.303Z,29.35
2017-06-23T05:08:09.950Z,28.20
2017-06-23T05:10:37.631Z,26.80
2017-06-23T05:13:05.461Z,26.02
2017-06-23T05:15:33.262Z,27.95
2017-06-23T05:18:01.672Z,30.95
2017-06-23T05:20:29.634Z,26.35
2017-06-23T05:22:57.303Z,24.40
2017-06-23T05:25:24.994Z,29.02
2017-06-23T05:27:53.436Z,28.20
2017-06-23T05:30:21.081Z,29.77
2017-06-23T05:32:48.748Z,27.02
2017-06-23T05:35:16.380Z,26.80
2017-06-23T05:37:44.306Z,26.15
2017-06-23T05:40:11.955Z,30.08
2017-06-23T05:42:39.617Z,28.50
2017-06-23T05:45:07.331Z,28.27
2017-06-23T05:47:34.987Z,27.02
2017-06-23T05:50:02.684Z,29.15
2017-06-23T05:52:31.103Z,26.92
2017-06-23T05:54:59.045Z,29.25
2017-06-23T05:57:26.697Z,29.15
2017-06-23T05:59:54.373Z,29.55
2017-06-23T06:02:22.039Z,30.15
2017-06-23T06:04:50.438Z,29.25
2017-06-23T06:07:18.103Z,29.87
2017-06-23T06:09:45.756Z,32.28
2017-06-23T06:12:13.700Z,29.73
2017-06-23T06:14:41.338Z,28.15
2017-06-23T06:17:08.971Z,31.45
2017-06-23T06:19:36.644Z,31.12
2017-06-23T06:22:04.282Z,32.40
2017-06-23T06:24:31.958Z,28.83
2017-06-23T06:26:59.590Z,28.15
2017-06-23T06:29:27.622Z,25.35
2017-06-23T06:31:55.268Z,28.50
2017-06-23T06:34:22.899Z,31.65
2017-06-23T06:36:50.571Z,29.05
2017-06-23T06:39:18.212Z,26.48
2017-06-23T06:41:45.880Z,27.85
2017-06-23T06:44:13.508Z,29.83
2017-06-23T06:46:41.498Z,26.85
2017-06-23T06:49:09.130Z,26.02
2017-06-23T06:51:38.162Z,28.45
2017-06-23T06:54:05.845Z,28.48
2017-06-23T06:56:33.500Z,30.62
2017-06-23T06:59:01.173Z,27.52
2017-06-23T07:01:28.806Z,27.23
2017-06-23T07:03:56.489Z,27.98
2017-06-23T07:06:24.891Z,27.05
2017-06-23T07:08:52.843Z,27.92
2017-06-23T07:11:20.535Z,27.37
2017-06-23T07:13:48.165Z,24.55
2017-06-23T07:16:15.836Z,25.37
2017-06-23T07:18:44.240Z,25.92
2017-06-23T07:21:11.913Z,26.52
2017-06-23T07:23:39.560Z,28.43
2017-06-23T07:26:07.195Z,24.75
2017-06-23T07:28:34.870Z,24.00
2017-06-23T07:31:02.494Z,26.05
2017-06-23T07:33:30.142Z,25.58
2017-06-23T07:35:57.812Z,26.02
2017-06-23T07:38:25.448Z,25.33
2017-06-23T07:40:53.078Z,24.48
2017-06-23T07:43:20.747Z,22.67
2017-06-23T07:45:48.383Z,23.48
2017-06-23T07:48:16.016Z,24.33
2017-06-23T07:50:43.678Z,24.83
2017-06-23T07:53:11.325Z,22.92
2017-06-23T07:55:38.968Z,23.40
2017-06-23T07:58:06.641Z,35.90
2017-06-23T08:00:34.288Z,39.25
2017-06-23T08:03:02.686Z,34.13
2017-06-23T08:05:30.668Z,33.15
2017-06-23T08:07:58.300Z,26.52
2017-06-23T08:10:25.939Z,22.00
2017-06-23T08:12:54.357Z,22.23
2017-06-23T08:15:21.990Z,23.48
2017-06-23T08:17:49.590Z,20.47
2017-06-23T08:20:18.274Z,23.47
2017-06-23T08:22:45.886Z,20.07
2017-06-23T08:25:13.495Z,25.67
2017-06-23T08:27:41.475Z,25.93
2017-06-23T08:30:09.870Z,23.45
2017-06-23T08:32:38.242Z,23.73
2017-06-23T08:35:06.660Z,24.57
2017-06-23T08:37:34.262Z,23.27
2017-06-23T08:40:02.638Z,38.60
2017-06-23T08:42:30.266Z,68.27
2017-06-23T08:44:57.870Z,38.37
2017-06-23T08:47:25.480Z,38.70
2017-06-23T08:49:53.308Z,34.10
2017-06-23T08:52:20.916Z,49.50
2017-06-23T08:54:49.324Z,83.97
2017-06-23T08:57:17.074Z,49.93
2017-06-23T08:59:44.687Z,47.50
2017-06-23T09:02:12.300Z,56.87
2017-06-23T09:04:40.212Z,51.43
2017-06-23T09:07:07.822Z,53.87
2017-06-23T09:09:35.431Z,65.87
2017-06-23T09:12:03.354Z,41.87
2017-06-23T09:14:30.980Z,55.37
2017-06-23T09:16:59.373Z,59.33
2017-06-23T09:19:27.328Z,58.13
2017-06-23T09:21:54.953Z,81.37
2017-06-23T09:24:22.558Z,50.17
2017-06-23T09:26:50.477Z,37.87
2017-06-23T09:29:18.088Z,55.67
2017-06-23T09:31:46.484Z,24.60
2017-06-23T09:34:14.453Z,25.30
2017-06-23T09:36:42.069Z,27.00
2017-06-23T09:39:09.681Z,27.57
2017-06-23T09:41:37.579Z,22.97
2017-06-23T09:44:05.205Z,23.43
2017-06-23T09:46:33.592Z,21.67
2017-06-23T09:49:01.486Z,22.03
2017-06-23T09:51:29.100Z,22.50
2017-06-23T09:53:56.715Z,23.07
2017-06-23T09:56:25.398Z,23.10
2017-06-23T09:58:53.038Z,23.73
2017-06-23T10:01:21.421Z,22.40
2017-06-23T10:03:49.411Z,21.47
2017-06-23T10:06:17.028Z,16.20
2017-06-23T10:08:44.659Z,21.00
2017-06-23T10:11:12.624Z,20.25
2017-06-23T10:13:40.227Z,15.83
2017-06-23T10:16:07.877Z,15.77
2017-06-23T10:18:35.962Z,23.50
2017-06-23T10:21:03.585Z,16.90
2017-06-23T10:23:31.957Z,19.97
2017-06-23T10:26:00.620Z,16.83
2017-06-23T10:28:29.013Z,17.00
2017-06-23T10:30:56.634Z,16.03
2017-06-23T10:33:24.628Z,14.97
2017-06-23T10:35:52.257Z,18.33
2017-06-23T10:38:19.872Z,16.60
2017-06-23T10:40:47.855Z,17.27
2017-06-23T10:43:15.465Z,28.07
2017-06-23T10:45:43.120Z,18.47
2017-06-23T10:48:11.815Z,17.97
2017-06-23T10:50:39.435Z,18.17
2017-06-23T10:53:07.046Z,16.20
2017-06-23T10:55:34.930Z,35.37
2017-06-23T10:58:02.533Z,23.70
2017-06-23T11:00:30.159Z,20.83
2017-06-23T11:02:58.840Z,15.77
2017-06-23T11:05:26.438Z,16.03
2017-06-23T11:07:54.060Z,17.87
2017-06-23T11:10:22.084Z,14.63
2017-06-23T11:12:49.695Z,15.70
2017-06-23T11:15:18.083Z,17.73
2017-06-23T11:17:46.051Z,14.13
2017-06-23T11:20:13.660Z,15.93
2017-06-23T11:22:42.035Z,17.73
2017-06-23T11:25:09.995Z,15.03
2017-06-23T11:27:37.607Z,14.20
2017-06-23T11:30:05.239Z,16.27
2017-06-23T11:32:33.240Z,12.93
2017-06-23T11:35:00.859Z,15.73
2017-06-23T11:37:28.494Z,14.10
2017-06-23T11:39:56.399Z,25.70
2017-06-23T11:42:24.022Z,22.90
2017-06-23T11:44:51.739Z,156.90
2017-06-23T11:47:19.726Z,134.30
2017-06-23T11:49:48.134Z,21.67
2017-06-23T11:52:15.748Z,20.13
2017-06-23T11:54:43.405Z,17.97
2017-06-23T11:57:11.041Z,15.60
2017-06-23T11:59:38.999Z,19.90
2017-06-23T12:02:06.600Z,35.97
2017-06-23T12:04:34.216Z,12.10
2017-06-23T12:07:01.854Z,13.87
2017-06-23T12:09:29.469Z,22.53
2017-06-23T12:11:57.451Z,13.47
2017-06-23T12:14:25.058Z,13.80
2017-06-23T12:16:53.449Z,15.60
2017-06-23T12:19:21.104Z,13.03
2017-06-23T12:21:48.715Z,13.60
2017-06-23T12:24:16.695Z,12.47
2017-06-23T12:26:44.295Z,12.23
2017-06-23T12:29:11.909Z,15.10
2017-06-23T12:31:39.542Z,15.47
2017-06-23T12:34:07.160Z,15.90
2017-06-23T12:36:35.850Z,14.30
2017-06-23T12:39:03.473Z,10.80
2017-06-23T12:41:31.085Z,13.47
2017-06-23T12:43:58.744Z,13.63
2017-06-23T12:46:26.345Z,12.17
2017-06-23T12:48:54.290Z,13.93
2017-06-23T12:51:21.891Z,9.93
2017-06-23T12:53:49.507Z,28.70
2017-06-23T12:56:17.146Z,11.63
2017-06-23T12:58:44.751Z,11.67
2017-06-23T13:01:13.431Z,10.77
2017-06-23T13:03:41.044Z,10.03
2017-06-23T13:06:08.655Z,9.77
2017-06-23T13:08:36.300Z,9.03
2017-06-23T13:11:03.908Z,10.53
2017-06-23T13:13:32.592Z,11.07
2017-06-23T13:16:00.200Z,9.63
2017-06-23T13:18:27.806Z,10.03
2017-06-23T13:20:55.483Z,11.13
2017-06-23T13:23:23.109Z,11.53
2017-06-23T13:25:51.043Z,10.27
2017-06-23T13:28:18.663Z,10.50
2017-06-23T13:30:46.270Z,12.33
2017-06-23T13:33:13.957Z,8.73
2017-06-23T13:35:42.332Z,10.63
2017-06-23T13:38:10.218Z,8.87
2017-06-23T13:40:37.828Z,10.80
2017-06-23T13:43:05.442Z,10.27
2017-06-23T13:45:33.086Z,9.23
2017-06-23T13:48:00.708Z,9.40
2017-06-23T13:50:28.620Z,8.63
2017-06-23T13:52:56.218Z,8.97
2017-06-23T13:55:23.832Z,8.60
2017-06-23T13:57:51.456Z,7.20
2017-06-23T14:00:19.064Z,8.77
2017-06-23T14:02:46.984Z,8.77
2017-06-23T14:05:14.591Z,7.10
2017-06-23T14:07:42.204Z,7.30
2017-06-23T14:10:09.849Z,7.63
2017-06-23T14:12:37.614Z,7.93
2017-06-23T14:15:06.292Z,9.23
2017-06-23T14:17:34.675Z,10.40
2017-06-23T14:20:02.277Z,7.60
2017-06-23T14:22:29.914Z,9.17
2017-06-23T14:24:57.554Z,9.80
2017-06-23T14:27:25.520Z,8.20
2017-06-23T14:29:53.167Z,12.60
2017-06-23T14:32:20.819Z,10.37
2017-06-23T14:34:48.475Z,8.27
2017-06-23T14:37:21.865Z,11.33
2017-06-23T14:39:50.562Z,8.00
2017-06-23T14:42:18.189Z,13.53
2017-06-23T14:44:47.356Z,11.93
2017-06-23T14:47:16.395Z,9.93
2017-06-23T14:49:44.752Z,10.73
2017-06-23T14:52:12.759Z,9.53
2017-06-23T14:54:41.155Z,6.70
2017-06-23T14:57:08.798Z,8.10
2017-06-23T14:59:36.481Z,11.73
2017-06-23T15:02:04.101Z,8.27
2017-06-23T15:04:32.015Z,8.90
2017-06-23T15:06:59.683Z,7.30
2017-06-23T15:09:28.055Z,7.00
2017-06-23T15:11:55.749Z,9.80
2017-06-23T15:14:23.354Z,7.03
2017-06-23T15:16:51.264Z,9.90
2017-06-23T15:19:18.871Z,8.23
2017-06-23T15:21:46.470Z,7.80
2017-06-23T15:24:14.877Z,10.00
2017-06-23T15:26:42.534Z,8.53
2017-06-23T15:29:10.561Z,7.70
2017-06-23T15:31:38.179Z,11.33
2017-06-23T15:34:06.548Z,9.83
2017-06-23T15:36:34.604Z,8.10
2017-06-23T15:39:03.017Z,11.23
2017-06-23T15:41:30.928Z,13.23
2017-06-23T15:43:58.539Z,20.10
2017-06-23T15:46:26.151Z,14.93
2017-06-23T15:48:53.834Z,16.57
2017-06-23T15:51:21.443Z,16.10
2017-06-23T15:53:49.386Z,14.80
2017-06-23T15:56:16.996Z,11.93
2017-06-23T15:58:45.377Z,11.03
2017-06-23T16:01:13.788Z,15.50
2017-06-23T16:03:41.437Z,9.77
2017-06-23T16:06:09.333Z,11.37
2017-06-23T16:08:37.714Z,9.27
2017-06-23T16:11:05.319Z,10.97
2017-06-23T16:13:32.969Z,11.00
2017-06-23T16:16:00.586Z,14.63
2017-06-23T16:18:28.502Z,12.43
2017-06-23T16:20:56.202Z,9.50
2017-06-23T16:23:23.812Z,10.70
2017-06-23T16:25:51.454Z,10.70
2017-06-23T16:28:19.074Z,15.23
2017-06-23T16:30:47.827Z,13.30
2017-06-23T16:33:15.451Z,11.63
2017-06-23T16:35:43.074Z,13.77
2017-06-23T16:38:11.061Z,10.47
2017-06-23T16:40:38.691Z,10.93
2017-06-23T16:43:06.634Z,12.33
2017-06-23T16:45:34.247Z,11.40
2017-06-23T16:48:01.928Z,11.57
2017-06-23T16:50:29.646Z,12.00
2017-06-23T16:52:57.267Z,11.83
2017-06-23T16:55:29.015Z,12.27
2017-06-23T16:57:57.412Z,11.57
2017-06-23T17:00:25.107Z,14.07
2017-06-23T17:02:52.825Z,13.60
2017-06-23T17:05:20.538Z,13.97
2017-06-23T17:07:48.534Z,12.70
2017-06-23T17:10:16.159Z,13.23
2017-06-23T17:12:43.794Z,12.27
2017-06-23T17:15:11.454Z,12.97
2017-06-23T17:17:39.072Z,12.70
2017-06-23T17:20:07.762Z,12.10
2017-06-23T17:22:35.397Z,11.57
2017-06-23T17:25:03.046Z,13.20
2017-06-23T17:27:30.705Z,13.17
2017-06-23T17:29:58.311Z,12.00
2017-06-23T17:32:27.061Z,15.17
2017-06-23T17:34:54.679Z,13.60
2017-06-23T17:37:22.308Z,20.13
2017-06-23T17:39:49.969Z,36.27
2017-06-23T17:42:17.584Z,16.37
2017-06-23T17:44:45.486Z,15.73
2017-06-23T17:47:13.107Z,15.03
2017-06-23T17:49:40.727Z,16.10
2017-06-23T17:52:08.376Z,14.47
2017-06-23T17:54:35.992Z,14.73
2017-06-23T17:57:03.938Z,22.60
2017-06-23T17:59:31.553Z,39.67
2017-06-23T18:01:59.214Z,12.83
2017-06-23T18:04:26.873Z,12.00
2017-06-23T18:06:54.490Z,14.57
2017-06-23T18:09:22.549Z,12.47
2017-06-23T18:11:50.167Z,13.70
2017-06-23T18:14:18.591Z,30.03
2017-06-23T18:16:46.240Z,30.20
2017-06-23T18:19:13.851Z,28.93
2017-06-23T18:21:41.804Z,56.40
2017-06-23T18:24:09.416Z,30.77
2017-06-23T18:26:37.833Z,12.77
2017-06-23T18:29:09.189Z,12.63
2017-06-23T18:31:36.842Z,12.80
2017-06-23T18:34:05.119Z,13.57
2017-06-23T18:36:32.844Z,12.23
2017-06-23T18:39:00.892Z,12.80
2017-06-23T18:41:28.552Z,15.17
2017-06-23T18:43:56.180Z,13.23
2017-06-23T18:46:24.101Z,13.53
2017-06-23T18:48:51.720Z,13.80
2017-06-23T18:51:20.187Z,13.97
2017-06-23T18:53:47.842Z,14.70
2017-06-23T18:56:15.458Z,14.77
2017-06-23T18:58:43.578Z,14.50
2017-06-23T19:01:11.202Z,13.77
2017-06-23T19:03:38.823Z,17.40
2017-06-23T19:06:06.481Z,17.60
2017-06-23T19:08:34.124Z,16.13
2017-06-23T19:11:02.096Z,16.40
2017-06-23T19:13:29.707Z,21.57
2017-06-23T19:15:58.128Z,22.90
2017-06-23T19:18:25.796Z,19.53
2017-06-23T19:20:53.432Z,19.50
2017-06-23T19:23:21.505Z,22.00
2017-06-23T19:25:49.205Z,20.03
2017-06-23T19:28:17.656Z,22.37
2017-06-23T19:30:45.308Z,21.50
2017-06-23T19:33:12.910Z,38.93
2017-06-23T19:35:40.928Z,22.53
2017-06-23T19:38:08.557Z,25.67
2017-06-23T19:40:36.180Z,24.23
2017-06-23T19:43:04.582Z,29.03
2017-06-23T19:45:32.206Z,56.03
2017-06-23T19:48:00.236Z,158.00
2017-06-23T19:50:27.856Z,153.10
2017-06-23T19:52:55.510Z,26.07
2017-06-23T19:55:23.168Z,23.83
2017-06-23T19:57:50.790Z,23.00
2017-06-23T20:00:18.711Z,25.53
2017-06-23T20:02:46.333Z,25.90
2017-06-23T20:05:14.787Z,26.67
2017-06-23T20:07:42.466Z,25.10
2017-06-23T20:10:10.132Z,23.80
2017-06-23T20:12:38.181Z,23.08
2017-06-23T20:15:05.803Z,25.03
2017-06-23T20:17:33.417Z,22.17
2017-06-23T20:20:01.068Z,19.73
2017-06-23T20:22:28.723Z,21.00
2017-06-23T20:24:56.669Z,21.30
2017-06-23T20:27:24.416Z,21.40
2017-06-23T20:29:52.116Z,22.58
2017-06-23T20:32:19.798Z,24.27
2017-06-23T20:34:47.414Z,23.70
2017-06-23T20:37:15.412Z,23.10
2017-06-23T20:39:43.057Z,22.77
2017-06-23T20:42:10.792Z,24.83
2017-06-23T20:44:39.267Z,26.02
2017-06-23T20:47:07.682Z,24.65
2017-06-23T20:49:35.679Z,24.52
2017-06-23T20:52:04.077Z,24.27
2017-06-23T20:54:31.711Z,23.67
2017-06-23T20:56:59.539Z,23.55
2017-06-23T20:59:28.228Z,22.90
2017-06-23T21:01:56.277Z,25.37
2017-06-23T21:04:24.733Z,24.02
2017-06-23T21:06:53.146Z,27.15
2017-06-23T21:09:21.706Z,24.23
2017-06-23T21:11:50.311Z,25.40
2017-06-23T21:14:18.345Z,24.75
2017-06-23T21:16:46.086Z,27.13
2017-06-23T21:19:13.716Z,26.10
2017-06-23T21:21:43.058Z,25.90
2017-06-23T21:24:10.699Z,25.65
2017-06-23T21:26:39.525Z,27.75
2017-06-23T21:29:07.592Z,29.23
2017-06-23T21:31:36.013Z,28.38
2017-06-23T21:34:04.457Z,28.25
2017-06-23T21:36:32.967Z,27.75
2017-06-23T21:39:00.932Z,28.50
2017-06-23T21:41:40.457Z,27.05
2017-06-23T21:44:08.560Z,28.52
2017-06-23T21:46:36.202Z,26.80
2017-06-23T21:49:03.851Z,27.00
2017-06-23T21:51:31.519Z,31.05
2017-06-23T21:53:59.187Z,27.50
2017-06-23T21:56:27.186Z,28.75
2017-06-23T21:58:54.973Z,27.55
2017-06-23T22:01:23.398Z,27.85
2017-06-23T22:03:51.072Z,27.85
2017-06-23T22:06:18.725Z,28.95
2017-06-23T22:08:46.769Z,25.88
2017-06-23T22:11:14.445Z,29.75
2017-06-23T22:13:42.910Z,27.27
2017-06-23T22:16:11.359Z,28.27
2017-06-23T22:18:39.039Z,28.12
2017-06-23T22:21:07.094Z,26.90
2017-06-23T22:23:34.737Z,27.92
2017-06-23T22:26:02.370Z,26.17
2017-06-23T22:28:30.047Z,27.83
2017-06-23T22:30:57.754Z,30.02
2017-06-23T22:33:26.480Z,28.40
2017-06-23T22:35:54.357Z,28.67
2017-06-23T22:38:22.002Z,25.75
2017-06-23T22:40:49.663Z,27.30
2017-06-23T22:43:17.306Z,28.95
2017-06-23T22:45:45.440Z,30.65
2017-06-23T22:48:13.079Z,31.15
2017-06-23T22:50:40.728Z,29.73
2017-06-23T22:53:08.405Z,27.42
2017-06-23T22:55:36.051Z,29.33
2017-06-23T22:58:04.072Z,27.80
2017-06-23T23:00:31.718Z,29.00
2017-06-23T23:02:59.361Z,27.30
2017-06-23T23:05:27.035Z,28.58
2017-06-23T23:07:54.663Z,27.80
2017-06-23T23:10:22.615Z,26.77
2017-06-23T23:12:50.263Z,30.67
2017-06-23T23:15:17.910Z,31.58
2017-06-23T23:17:45.586Z,28.08
2017-06-23T23:20:13.221Z,29.77
2017-06-23T23:22:41.303Z,29.70
2017-06-23T23:25:09.714Z,29.58
2017-06-23T23:27:37.342Z,29.58
2017-06-23T23:30:05.011Z,26.80
2017-06-23T23:32:33.627Z,31.55
2017-06-23T23:35:02.335Z,27.52
2017-06-23T23:37:29.967Z,28.60
2017-06-23T23:39:57.614Z,29.37
2017-06-23T23:42:25.303Z,31.65
2017-06-23T23:44:53.103Z,30.27
2017-06-23T23:47:21.799Z,29.60
2017-06-23T23:49:49.435Z,30.80
2017-06-23T23:52:17.070Z,28.55
2017-06-23T23:54:44.744Z,32.08
2017-06-23T23:57:12.387Z,30.70
2017-06-23T23:59:40.359Z,27.80
